Lackland Air Force Base (Kelly Field Annex) Airport
KSKF : now visible

Airfield :











YOU CAN JOIN US ON...

 
LOGIN :

Register | Disclaimer

   EN    FR    IT 

 









Legend :    VFR   Marginal VFR   IFR   Intensive IFR   Very Intensive IFR
Visi :
Ceiling :
>= 8 km
>= 3000ft
5 to 8 km
1000 to 3000 ft
1500m to 5 km
500 to 1000 ft
800 to 1500m
200 to 500 ft
< 800m
< 200 ft
Symbols :   Thunderstorms  Fog  Heavy snow  Heavy precipitations  Wind > 20 kt






- Airport Elevation : 691 ft


KSKF - Lackland Air Force Base (Kelly Field Annex)

CURRENT METAR :
  • 151016Z 09009KT 7SM -RA SCT009 BKN030 23/22 A2991 RMK AO2A SLP121 $

EXPIRED METARs :
  • 150956Z 10010KT 10SM -RA BKN010 BKN014 BKN019 23/22 A2991 RMK AO2A SHRAE0856RAB0856E40RAB52 CIG 010V014 BKN010 V SCT CIG 008 RWY34 SLP121 P0001 T02320222 $
  • 150945Z 09009KT 10SM BKN013 OVC019 23/22 A2991 RMK AO2A SHRAE0856RAB0856E40 BKN V OVC CIG 008 RWY34 SLP121 $
  • 150929Z 09011KT 10SM -RA BKN012 BKN020 23/22 A2990 RMK AO2A SHRAE0856RAB0856 CIG 010 RWY34 SLP118 $
  • 150916Z 09012KT 8SM -RA BKN014 BKN020 BKN029 24/22 A2990 RMK AO2A SHRAE0856RAB0856 CIG 014V030 BKN014 V FEW CIG 013 RWY34 SLP118 $
  • 150911Z 09011KT 8SM -RA SCT015 SCT020 BKN028 BKN044 24/22 A2990 RMK AO2A SHRAE0856RAB0856 CIG 013 RWY34 SLP118 $
  • 150856Z 09009KT 6SM -SHRA FEW013 BKN020 BKN030 BKN038 24/22 A2991 RMK AO2A RAB03E22RAB48 CIG 020V039 SLP121 P0005 60006 T02380220 55004 $
  • 150842Z 07007KT 10SM BKN023 BKN028 BKN038 24/22 A2990 RMK AO2A RAB03E22 CIG 021V027 SLP118 $
  • 150832Z 07009KT 10SM BKN023 BKN028 24/22 A2990 RMK AO2A RAB03E22 CIG 023V028 BKN023 V SCT SLP118 $
  • 150827Z 07008KT 10SM SCT023 BKN028 24/22 A2990 RMK AO2A RAB03E22 CIG 027 RWY34 SLP118 $
  • 150818Z 07008KT 6SM -RA FEW015 BKN025 BKN050 24/22 A2990 RMK AO2A RAB03 SLP118 $
  • 150808Z 06010KT 6SM -RA FEW018 BKN026 BKN050 24/22 A2990 RMK AO2A RAB03 CIG 026V050 SLP118 $
  • 150756Z 08009KT 10SM SCT018 SCT024 BKN030 OVC050 24/22 A2991 RMK AO2A RAB29E41 SLP121 P0001 T02440221 $
  • 150742Z 09008KT 10SM SCT021 OVC028 24/22 A2991 RMK AO2A RAB29E41 CIG 025V030 CIG 022 RWY34 SLP121 $
  • 150741Z 10009KT 10SM SCT024 BKN030 OVC041 25/22 A2991 RMK AO2A RAB29E41 SLP121 $

TAF TAF KSKF
Valid from the 15 at 10:00 until the 16 at 16:00 UTC


151000Z 1510/1616 10012KT 9999 -SHRA VCTS BKN015 BKN025CB OVC050 QNH2991INS
TEMPO 1510/1512 6000 -TSRA BKN009 BKN015 BKN020CB OVC045
BECMG 1516/1517 13010G15KT 9999 VCSH BKN025 BKN045 OVC100 QNH2990INS
TEMPO 1517/1519 8000 -SHRA
BECMG 1519/1520 13012G18KT 9999 NSW SCT025 BKN035 OVC120 QNH2989INS
TEMPO 1520/1600 12015G25KT 6000 -TSRA SCT010 BKN030CB OVC100
BECMG 1600/1601 14010KT 9999 SCT050 BKN150 QNH2987INS
BECMG 1606/1607 14006KT 9999 BKN011 OVC026 QNH2992INS
TEMPO 1608/1613 OVC009
BECMG 1614/1615 10010G15KT 9999 FEW012 BKN020 BKN040 QNH2988INS TX32/1523Z TN22/1511Z
KZHU FIR / North America



MET'MAP, your aeronautical weather chart ! - Copyright ORBIFLY December 2007 - Disclaimer

ORBIFLY MET'MAP TEAM :

Programming & Development : Alexandra Zaïnal
Original concept : Baudouin d'Aumeries
Technical & hardware support : Manuel Goepfert
Assistance : Marc-Olivier Méhu




SOURCES & CREDITS :

   NOAA       Earth
Advisory